sensor_id;sensor_type;location;lat;lon;timestamp;P1;durP1;ratioP1;P2;durP2;ratioP2
39370;SDS011;25099;51.946;4.838;2023-11-21T00:01:35;19.38;;;11.18;;
39370;SDS011;25099;51.946;4.838;2023-11-21T00:04:01;22.27;;;11.82;;
39370;SDS011;25099;51.946;4.838;2023-11-21T00:06:27;19.45;;;10.10;;
39370;SDS011;25099;51.946;4.838;2023-11-21T00:08:52;17.42;;;10.55;;
39370;SDS011;25099;51.946;4.838;2023-11-21T00:11:18;15.30;;;10.07;;
39370;SDS011;25099;51.946;4.838;2023-11-21T00:13:43;17.88;;;10.07;;
39370;SDS011;25099;51.946;4.838;2023-11-21T00:16:10;18.10;;;10.60;;
39370;SDS011;25099;51.946;4.838;2023-11-21T00:18:36;15.70;;;9.80;;
39370;SDS011;25099;51.946;4.838;2023-11-21T00:21:01;19.70;;;11.30;;
39370;SDS011;25099;51.946;4.838;2023-11-21T00:23:28;18.20;;;10.88;;
39370;SDS011;25099;51.946;4.838;2023-11-21T00:25:54;17.17;;;11.13;;
39370;SDS011;25099;51.946;4.838;2023-11-21T00:28:19;15.38;;;9.88;;
39370;SDS011;25099;51.946;4.838;2023-11-21T00:30:45;15.95;;;10.45;;
39370;SDS011;25099;51.946;4.838;2023-11-21T00:33:10;15.38;;;10.52;;
39370;SDS011;25099;51.946;4.838;2023-11-21T00:35:36;19.55;;;10.93;;
39370;SDS011;25099;51.946;4.838;2023-11-21T00:38:02;17.30;;;10.05;;
39370;SDS011;25099;51.946;4.838;2023-11-21T00:40:28;14.52;;;9.85;;
39370;SDS011;25099;51.946;4.838;2023-11-21T00:42:54;16.83;;;10.48;;
39370;SDS011;25099;51.946;4.838;2023-11-21T00:45:21;18.98;;;11.15;;
39370;SDS011;25099;51.946;4.838;2023-11-21T00:47:46;20.65;;;11.00;;
39370;SDS011;25099;51.946;4.838;2023-11-21T00:50:12;20.73;;;11.27;;
39370;SDS011;25099;51.946;4.838;2023-11-21T00:52:37;17.52;;;11.05;;
39370;SDS011;25099;51.946;4.838;2023-11-21T00:55:04;16.35;;;10.43;;
39370;SDS011;25099;51.946;4.838;2023-11-21T00:57:32;16.80;;;10.50;;
39370;SDS011;25099;51.946;4.838;2023-11-21T00:59:58;16.33;;;10.70;;
39370;SDS011;25099;51.946;4.838;2023-11-21T01:02:23;17.73;;;10.18;;
39370;SDS011;25099;51.946;4.838;2023-11-21T01:04:50;18.63;;;11.68;;
39370;SDS011;25099;51.946;4.838;2023-11-21T01:07:15;22.52;;;11.70;;
39370;SDS011;25099;51.946;4.838;2023-11-21T01:09:41;23.25;;;12.15;;
39370;SDS011;25099;51.946;4.838;2023-11-21T01:12:07;20.17;;;11.20;;
39370;SDS011;25099;51.946;4.838;2023-11-21T01:14:32;23.23;;;12.00;;
39370;SDS011;25099;51.946;4.838;2023-11-21T01:16:58;24.88;;;12.48;;
39370;SDS011;25099;51.946;4.838;2023-11-21T01:19:23;20.50;;;12.27;;
39370;SDS011;25099;51.946;4.838;2023-11-21T01:21:49;27.55;;;12.38;;
39370;SDS011;25099;51.946;4.838;2023-11-21T01:24:14;21.73;;;11.30;;
39370;SDS011;25099;51.946;4.838;2023-11-21T01:26:40;22.17;;;12.25;;
39370;SDS011;25099;51.946;4.838;2023-11-21T01:29:05;24.65;;;12.63;;
39370;SDS011;25099;51.946;4.838;2023-11-21T01:31:31;21.33;;;11.85;;
39370;SDS011;25099;51.946;4.838;2023-11-21T01:33:57;21.17;;;12.82;;
39370;SDS011;25099;51.946;4.838;2023-11-21T01:36:22;18.77;;;10.45;;
39370;SDS011;25099;51.946;4.838;2023-11-21T01:38:48;19.30;;;12.23;;
39370;SDS011;25099;51.946;4.838;2023-11-21T01:41:14;20.35;;;11.63;;
39370;SDS011;25099;51.946;4.838;2023-11-21T01:43:39;19.30;;;10.68;;
39370;SDS011;25099;51.946;4.838;2023-11-21T01:46:05;24.48;;;12.80;;
39370;SDS011;25099;51.946;4.838;2023-11-21T01:48:31;22.98;;;11.10;;
39370;SDS011;25099;51.946;4.838;2023-11-21T01:50:58;20.00;;;10.57;;
39370;SDS011;25099;51.946;4.838;2023-11-21T01:53:24;16.67;;;10.85;;
39370;SDS011;25099;51.946;4.838;2023-11-21T01:55:51;16.73;;;10.68;;
39370;SDS011;25099;51.946;4.838;2023-11-21T01:58:17;22.13;;;11.63;;
39370;SDS011;25099;51.946;4.838;2023-11-21T02:00:42;25.48;;;11.20;;
39370;SDS011;25099;51.946;4.838;2023-11-21T02:03:08;16.08;;;10.35;;
39370;SDS011;25099;51.946;4.838;2023-11-21T02:05:35;19.35;;;10.77;;
39370;SDS011;25099;51.946;4.838;2023-11-21T02:08:01;31.48;;;11.60;;
39370;SDS011;25099;51.946;4.838;2023-11-21T02:10:28;22.85;;;10.43;;
39370;SDS011;25099;51.946;4.838;2023-11-21T02:12:54;21.27;;;10.18;;
39370;SDS011;25099;51.946;4.838;2023-11-21T02:15:22;20.60;;;10.45;;
39370;SDS011;25099;51.946;4.838;2023-11-21T02:17:51;25.52;;;11.07;;
39370;SDS011;25099;51.946;4.838;2023-11-21T02:20:18;19.70;;;10.68;;
39370;SDS011;25099;51.946;4.838;2023-11-21T02:22:51;20.20;;;9.75;;
39370;SDS011;25099;51.946;4.838;2023-11-21T02:25:24;19.77;;;9.82;;
39370;SDS011;25099;51.946;4.838;2023-11-21T02:27:53;15.23;;;9.40;;
39370;SDS011;25099;51.946;4.838;2023-11-21T02:30:20;17.65;;;9.40;;
39370;SDS011;25099;51.946;4.838;2023-11-21T02:32:50;21.25;;;9.98;;
39370;SDS011;25099;51.946;4.838;2023-11-21T02:35:19;15.27;;;9.55;;
39370;SDS011;25099;51.946;4.838;2023-11-21T02:37:51;16.67;;;9.50;;
39370;SDS011;25099;51.946;4.838;2023-11-21T02:40:17;18.58;;;9.77;;
39370;SDS011;25099;51.946;4.838;2023-11-21T02:42:43;46.65;;;11.75;;
39370;SDS011;25099;51.946;4.838;2023-11-21T02:45:09;17.80;;;9.88;;
39370;SDS011;25099;51.946;4.838;2023-11-21T02:47:38;16.45;;;10.10;;
39370;SDS011;25099;51.946;4.838;2023-11-21T02:50:04;17.63;;;9.40;;
39370;SDS011;25099;51.946;4.838;2023-11-21T02:52:32;19.92;;;9.75;;
39370;SDS011;25099;51.946;4.838;2023-11-21T02:54:58;17.52;;;10.07;;
39370;SDS011;25099;51.946;4.838;2023-11-21T02:57:24;27.00;;;10.48;;
39370;SDS011;25099;51.946;4.838;2023-11-21T02:59:49;22.83;;;9.98;;
39370;SDS011;25099;51.946;4.838;2023-11-21T03:02:15;22.73;;;10.43;;
39370;SDS011;25099;51.946;4.838;2023-11-21T03:04:41;17.80;;;10.25;;
39370;SDS011;25099;51.946;4.838;2023-11-21T03:07:07;20.95;;;9.88;;
39370;SDS011;25099;51.946;4.838;2023-11-21T03:09:34;23.05;;;10.30;;
39370;SDS011;25099;51.946;4.838;2023-11-21T03:12:00;20.85;;;8.93;;
39370;SDS011;25099;51.946;4.838;2023-11-21T03:14:26;24.98;;;9.18;;
39370;SDS011;25099;51.946;4.838;2023-11-21T03:16:51;23.75;;;10.02;;
39370;SDS011;25099;51.946;4.838;2023-11-21T03:19:17;17.13;;;10.18;;
39370;SDS011;25099;51.946;4.838;2023-11-21T03:21:43;16.83;;;9.10;;
39370;SDS011;25099;51.946;4.838;2023-11-21T03:24:08;14.48;;;10.02;;
39370;SDS011;25099;51.946;4.838;2023-11-21T03:26:34;18.60;;;10.50;;
39370;SDS011;25099;51.946;4.838;2023-11-21T03:28:59;21.23;;;9.77;;
39370;SDS011;25099;51.946;4.838;2023-11-21T03:31:25;26.23;;;9.23;;
39370;SDS011;25099;51.946;4.838;2023-11-21T03:33:51;18.52;;;9.43;;
39370;SDS011;25099;51.946;4.838;2023-11-21T03:36:18;24.17;;;10.35;;
39370;SDS011;25099;51.946;4.838;2023-11-21T03:38:44;19.77;;;9.20;;
39370;SDS011;25099;51.946;4.838;2023-11-21T03:41:10;17.42;;;9.30;;
39370;SDS011;25099;51.946;4.838;2023-11-21T03:43:36;19.67;;;9.13;;
39370;SDS011;25099;51.946;4.838;2023-11-21T03:46:02;19.50;;;8.95;;
39370;SDS011;25099;51.946;4.838;2023-11-21T03:48:28;17.23;;;9.68;;
39370;SDS011;25099;51.946;4.838;2023-11-21T03:50:54;20.83;;;9.60;;
39370;SDS011;25099;51.946;4.838;2023-11-21T03:53:20;24.65;;;9.90;;
39370;SDS011;25099;51.946;4.838;2023-11-21T03:55:45;19.55;;;9.43;;
39370;SDS011;25099;51.946;4.838;2023-11-21T03:58:11;24.00;;;9.38;;
39370;SDS011;25099;51.946;4.838;2023-11-21T04:00:37;17.88;;;9.05;;
39370;SDS011;25099;51.946;4.838;2023-11-21T04:03:03;22.10;;;8.32;;
39370;SDS011;25099;51.946;4.838;2023-11-21T04:05:28;22.25;;;9.15;;
39370;SDS011;25099;51.946;4.838;2023-11-21T04:07:54;18.95;;;7.78;;
39370;SDS011;25099;51.946;4.838;2023-11-21T04:10:19;20.95;;;8.27;;
39370;SDS011;25099;51.946;4.838;2023-11-21T04:12:45;15.32;;;8.27;;
39370;SDS011;25099;51.946;4.838;2023-11-21T04:15:11;22.08;;;9.25;;
39370;SDS011;25099;51.946;4.838;2023-11-21T04:17:40;14.32;;;7.65;;
39370;SDS011;25099;51.946;4.838;2023-11-21T04:20:07;23.55;;;9.00;;
39370;SDS011;25099;51.946;4.838;2023-11-21T04:22:38;20.55;;;8.55;;
39370;SDS011;25099;51.946;4.838;2023-11-21T04:25:13;17.52;;;8.25;;
39370;SDS011;25099;51.946;4.838;2023-11-21T04:27:40;18.27;;;8.57;;
39370;SDS011;25099;51.946;4.838;2023-11-21T04:30:08;20.67;;;8.85;;
39370;SDS011;25099;51.946;4.838;2023-11-21T04:32:35;18.80;;;8.95;;
39370;SDS011;25099;51.946;4.838;2023-11-21T04:35:00;18.27;;;7.82;;
39370;SDS011;25099;51.946;4.838;2023-11-21T04:37:26;13.10;;;8.27;;
39370;SDS011;25099;51.946;4.838;2023-11-21T04:39:51;20.10;;;8.73;;
39370;SDS011;25099;51.946;4.838;2023-11-21T04:42:17;20.02;;;8.82;;
39370;SDS011;25099;51.946;4.838;2023-11-21T04:44:43;19.05;;;9.27;;
39370;SDS011;25099;51.946;4.838;2023-11-21T04:47:09;14.48;;;8.95;;
39370;SDS011;25099;51.946;4.838;2023-11-21T04:49:35;18.70;;;9.93;;
39370;SDS011;25099;51.946;4.838;2023-11-21T04:52:00;21.05;;;8.63;;
39370;SDS011;25099;51.946;4.838;2023-11-21T04:54:26;19.52;;;9.57;;
39370;SDS011;25099;51.946;4.838;2023-11-21T04:56:52;22.35;;;9.10;;
39370;SDS011;25099;51.946;4.838;2023-11-21T04:59:17;22.70;;;9.15;;
39370;SDS011;25099;51.946;4.838;2023-11-21T05:01:43;18.35;;;9.27;;
39370;SDS011;25099;51.946;4.838;2023-11-21T05:04:09;15.77;;;8.80;;
39370;SDS011;25099;51.946;4.838;2023-11-21T05:06:34;16.27;;;9.57;;
39370;SDS011;25099;51.946;4.838;2023-11-21T05:09:00;17.85;;;8.50;;
39370;SDS011;25099;51.946;4.838;2023-11-21T05:11:26;21.85;;;9.40;;
39370;SDS011;25099;51.946;4.838;2023-11-21T05:13:52;18.35;;;8.50;;
39370;SDS011;25099;51.946;4.838;2023-11-21T05:16:19;17.88;;;9.02;;
39370;SDS011;25099;51.946;4.838;2023-11-21T05:18:45;18.63;;;9.10;;
39370;SDS011;25099;51.946;4.838;2023-11-21T05:21:10;19.05;;;9.30;;
39370;SDS011;25099;51.946;4.838;2023-11-21T05:23:36;17.33;;;9.55;;
39370;SDS011;25099;51.946;4.838;2023-11-21T05:26:02;16.80;;;9.48;;
39370;SDS011;25099;51.946;4.838;2023-11-21T05:28:28;16.90;;;9.32;;
39370;SDS011;25099;51.946;4.838;2023-11-21T05:30:53;22.10;;;11.15;;
39370;SDS011;25099;51.946;4.838;2023-11-21T05:33:19;15.77;;;9.85;;
39370;SDS011;25099;51.946;4.838;2023-11-21T05:35:45;16.80;;;9.65;;
39370;SDS011;25099;51.946;4.838;2023-11-21T05:38:11;18.35;;;9.38;;
39370;SDS011;25099;51.946;4.838;2023-11-21T05:40:36;19.55;;;9.48;;
39370;SDS011;25099;51.946;4.838;2023-11-21T05:43:02;19.02;;;8.82;;
39370;SDS011;25099;51.946;4.838;2023-11-21T05:45:30;17.75;;;9.32;;
39370;SDS011;25099;51.946;4.838;2023-11-21T05:47:55;17.15;;;8.57;;
39370;SDS011;25099;51.946;4.838;2023-11-21T05:50:21;18.83;;;9.52;;
39370;SDS011;25099;51.946;4.838;2023-11-21T05:52:47;16.13;;;8.90;;
39370;SDS011;25099;51.946;4.838;2023-11-21T05:55:13;13.85;;;8.82;;
39370;SDS011;25099;51.946;4.838;2023-11-21T05:57:39;16.73;;;9.38;;
39370;SDS011;25099;51.946;4.838;2023-11-21T06:00:07;13.25;;;9.73;;
39370;SDS011;25099;51.946;4.838;2023-11-21T06:02:47;13.13;;;9.30;;
39370;SDS011;25099;51.946;4.838;2023-11-21T06:05:17;20.93;;;11.27;;
39370;SDS011;25099;51.946;4.838;2023-11-21T06:07:43;14.05;;;9.90;;
39370;SDS011;25099;51.946;4.838;2023-11-21T06:10:10;12.50;;;9.38;;
39370;SDS011;25099;51.946;4.838;2023-11-21T06:12:39;14.98;;;9.45;;
39370;SDS011;25099;51.946;4.838;2023-11-21T06:15:08;16.65;;;8.90;;
39370;SDS011;25099;51.946;4.838;2023-11-21T06:17:37;15.43;;;10.13;;
39370;SDS011;25099;51.946;4.838;2023-11-21T06:20:06;17.42;;;10.18;;
39370;SDS011;25099;51.946;4.838;2023-11-21T06:22:40;20.40;;;10.65;;
39370;SDS011;25099;51.946;4.838;2023-11-21T06:25:07;20.92;;;10.85;;
39370;SDS011;25099;51.946;4.838;2023-11-21T06:27:36;14.25;;;10.63;;
39370;SDS011;25099;51.946;4.838;2023-11-21T06:30:06;16.27;;;9.80;;
39370;SDS011;25099;51.946;4.838;2023-11-21T06:32:33;18.17;;;10.80;;
39370;SDS011;25099;51.946;4.838;2023-11-21T06:34:59;12.70;;;9.38;;
39370;SDS011;25099;51.946;4.838;2023-11-21T06:37:26;15.05;;;10.45;;
39370;SDS011;25099;51.946;4.838;2023-11-21T06:39:52;16.73;;;10.30;;
39370;SDS011;25099;51.946;4.838;2023-11-21T06:42:18;19.85;;;9.93;;
39370;SDS011;25099;51.946;4.838;2023-11-21T06:44:47;13.75;;;9.23;;
39370;SDS011;25099;51.946;4.838;2023-11-21T06:47:13;21.92;;;9.70;;
39370;SDS011;25099;51.946;4.838;2023-11-21T06:49:39;12.32;;;8.68;;
39370;SDS011;25099;51.946;4.838;2023-11-21T06:52:06;15.70;;;9.50;;
39370;SDS011;25099;51.946;4.838;2023-11-21T06:54:31;13.05;;;8.88;;
39370;SDS011;25099;51.946;4.838;2023-11-21T06:56:57;10.75;;;7.85;;
39370;SDS011;25099;51.946;4.838;2023-11-21T06:59:23;12.07;;;8.65;;
39370;SDS011;25099;51.946;4.838;2023-11-21T07:01:49;12.80;;;8.40;;
39370;SDS011;25099;51.946;4.838;2023-11-21T07:04:15;11.48;;;8.90;;
39370;SDS011;25099;51.946;4.838;2023-11-21T07:06:41;9.93;;;7.97;;
39370;SDS011;25099;51.946;4.838;2023-11-21T07:09:08;15.00;;;8.50;;
39370;SDS011;25099;51.946;4.838;2023-11-21T07:11:34;10.55;;;8.32;;
39370;SDS011;25099;51.946;4.838;2023-11-21T07:14:00;8.88;;;7.53;;
39370;SDS011;25099;51.946;4.838;2023-11-21T07:16:32;10.25;;;6.75;;
39370;SDS011;25099;51.946;4.838;2023-11-21T07:19:04;11.65;;;6.30;;
39370;SDS011;25099;51.946;4.838;2023-11-21T07:21:33;7.40;;;5.60;;
39370;SDS011;25099;51.946;4.838;2023-11-21T07:24:00;7.60;;;5.28;;
39370;SDS011;25099;51.946;4.838;2023-11-21T07:26:26;9.48;;;6.10;;
39370;SDS011;25099;51.946;4.838;2023-11-21T07:28:52;13.07;;;4.82;;
39370;SDS011;25099;51.946;4.838;2023-11-21T07:31:18;11.85;;;4.68;;
39370;SDS011;25099;51.946;4.838;2023-11-21T07:33:44;7.57;;;5.53;;
39370;SDS011;25099;51.946;4.838;2023-11-21T07:36:13;10.88;;;6.25;;
39370;SDS011;25099;51.946;4.838;2023-11-21T07:38:39;10.20;;;5.18;;
39370;SDS011;25099;51.946;4.838;2023-11-21T07:41:05;10.27;;;5.07;;
39370;SDS011;25099;51.946;4.838;2023-11-21T07:43:33;7.70;;;4.40;;
39370;SDS011;25099;51.946;4.838;2023-11-21T07:46:02;8.40;;;4.97;;
39370;SDS011;25099;51.946;4.838;2023-11-21T07:48:31;10.45;;;4.80;;
39370;SDS011;25099;51.946;4.838;2023-11-21T07:50:57;11.07;;;5.32;;
39370;SDS011;25099;51.946;4.838;2023-11-21T07:53:24;15.48;;;4.80;;
39370;SDS011;25099;51.946;4.838;2023-11-21T07:55:50;8.82;;;4.70;;
39370;SDS011;25099;51.946;4.838;2023-11-21T07:58:17;11.50;;;5.30;;
39370;SDS011;25099;51.946;4.838;2023-11-21T08:00:43;8.80;;;5.30;;
39370;SDS011;25099;51.946;4.838;2023-11-21T08:03:09;11.10;;;5.82;;
39370;SDS011;25099;51.946;4.838;2023-11-21T08:05:35;14.32;;;6.07;;
39370;SDS011;25099;51.946;4.838;2023-11-21T08:08:00;9.68;;;6.20;;
39370;SDS011;25099;51.946;4.838;2023-11-21T08:10:27;14.63;;;6.93;;
39370;SDS011;25099;51.946;4.838;2023-11-21T08:12:53;14.02;;;6.57;;
39370;SDS011;25099;51.946;4.838;2023-11-21T08:15:18;12.73;;;7.22;;
39370;SDS011;25099;51.946;4.838;2023-11-21T08:17:44;12.23;;;6.88;;
39370;SDS011;25099;51.946;4.838;2023-11-21T08:20:11;9.30;;;7.65;;
39370;SDS011;25099;51.946;4.838;2023-11-21T08:22:37;12.25;;;7.15;;
39370;SDS011;25099;51.946;4.838;2023-11-21T08:25:05;9.40;;;6.70;;
39370;SDS011;25099;51.946;4.838;2023-11-21T08:27:31;10.95;;;7.45;;
39370;SDS011;25099;51.946;4.838;2023-11-21T08:29:56;12.13;;;7.20;;
39370;SDS011;25099;51.946;4.838;2023-11-21T08:32:22;13.45;;;6.57;;
39370;SDS011;25099;51.946;4.838;2023-11-21T08:34:47;9.73;;;6.82;;
39370;SDS011;25099;51.946;4.838;2023-11-21T08:37:15;14.15;;;8.18;;
39370;SDS011;25099;51.946;4.838;2023-11-21T08:39:41;12.23;;;8.00;;
39370;SDS011;25099;51.946;4.838;2023-11-21T08:42:08;12.00;;;8.02;;
39370;SDS011;25099;51.946;4.838;2023-11-21T08:44:34;10.50;;;8.38;;
39370;SDS011;25099;51.946;4.838;2023-11-21T08:47:00;15.50;;;9.20;;
39370;SDS011;25099;51.946;4.838;2023-11-21T08:49:25;13.27;;;8.38;;
39370;SDS011;25099;51.946;4.838;2023-11-21T08:51:55;12.43;;;8.48;;
39370;SDS011;25099;51.946;4.838;2023-11-21T08:54:20;11.38;;;7.60;;
39370;SDS011;25099;51.946;4.838;2023-11-21T08:56:46;9.35;;;8.45;;
39370;SDS011;25099;51.946;4.838;2023-11-21T08:59:12;17.83;;;9.20;;
39370;SDS011;25099;51.946;4.838;2023-11-21T09:01:39;12.10;;;8.95;;
39370;SDS011;25099;51.946;4.838;2023-11-21T09:04:06;12.80;;;8.63;;
39370;SDS011;25099;51.946;4.838;2023-11-21T09:06:32;13.70;;;8.48;;
39370;SDS011;25099;51.946;4.838;2023-11-21T09:08:57;14.02;;;8.50;;
39370;SDS011;25099;51.946;4.838;2023-11-21T09:11:23;11.52;;;8.10;;
39370;SDS011;25099;51.946;4.838;2023-11-21T09:13:51;12.93;;;8.25;;
39370;SDS011;25099;51.946;4.838;2023-11-21T09:16:19;11.75;;;6.72;;
39370;SDS011;25099;51.946;4.838;2023-11-21T09:18:44;10.13;;;6.75;;
39370;SDS011;25099;51.946;4.838;2023-11-21T09:21:10;8.77;;;6.68;;
39370;SDS011;25099;51.946;4.838;2023-11-21T09:23:36;10.00;;;6.07;;
39370;SDS011;25099;51.946;4.838;2023-11-21T09:26:01;11.25;;;6.43;;
39370;SDS011;25099;51.946;4.838;2023-11-21T09:28:27;9.13;;;5.82;;
39370;SDS011;25099;51.946;4.838;2023-11-21T09:30:53;6.65;;;5.63;;
39370;SDS011;25099;51.946;4.838;2023-11-21T09:33:18;7.35;;;5.97;;
39370;SDS011;25099;51.946;4.838;2023-11-21T09:35:45;10.30;;;5.85;;
39370;SDS011;25099;51.946;4.838;2023-11-21T09:38:11;6.95;;;5.35;;
39370;SDS011;25099;51.946;4.838;2023-11-21T09:40:37;11.18;;;5.50;;
39370;SDS011;25099;51.946;4.838;2023-11-21T09:43:06;6.97;;;5.38;;
39370;SDS011;25099;51.946;4.838;2023-11-21T09:45:41;6.95;;;5.22;;
39370;SDS011;25099;51.946;4.838;2023-11-21T09:48:10;6.63;;;5.10;;
39370;SDS011;25099;51.946;4.838;2023-11-21T09:50:37;6.85;;;4.50;;
39370;SDS011;25099;51.946;4.838;2023-11-21T09:53:19;9.57;;;4.78;;
39370;SDS011;25099;51.946;4.838;2023-11-21T09:55:53;5.35;;;4.65;;
39370;SDS011;25099;51.946;4.838;2023-11-21T09:58:19;7.70;;;5.20;;
39370;SDS011;25099;51.946;4.838;2023-11-21T10:00:49;5.63;;;4.70;;
39370;SDS011;25099;51.946;4.838;2023-11-21T10:03:17;9.20;;;5.38;;
39370;SDS011;25099;51.946;4.838;2023-11-21T10:05:50;6.25;;;4.75;;
39370;SDS011;25099;51.946;4.838;2023-11-21T10:08:18;8.70;;;4.97;;
39370;SDS011;25099;51.946;4.838;2023-11-21T10:10:46;6.20;;;4.80;;
39370;SDS011;25099;51.946;4.838;2023-11-21T10:13:18;5.32;;;4.80;;
39370;SDS011;25099;51.946;4.838;2023-11-21T10:15:48;6.30;;;5.18;;
39370;SDS011;25099;51.946;4.838;2023-11-21T10:18:19;6.43;;;5.50;;
39370;SDS011;25099;51.946;4.838;2023-11-21T10:20:48;7.15;;;5.18;;
39370;SDS011;25099;51.946;4.838;2023-11-21T10:23:18;9.23;;;5.55;;
39370;SDS011;25099;51.946;4.838;2023-11-21T10:25:47;7.60;;;5.93;;
39370;SDS011;25099;51.946;4.838;2023-11-21T10:28:14;7.75;;;6.13;;
39370;SDS011;25099;51.946;4.838;2023-11-21T10:30:40;7.20;;;5.18;;
39370;SDS011;25099;51.946;4.838;2023-11-21T10:33:06;9.07;;;5.85;;
39370;SDS011;25099;51.946;4.838;2023-11-21T10:38:19;7.07;;;5.70;;
39370;SDS011;25099;51.946;4.838;2023-11-21T10:40:49;8.02;;;5.25;;
39370;SDS011;25099;51.946;4.838;2023-11-21T10:43:15;5.60;;;5.05;;
39370;SDS011;25099;51.946;4.838;2023-11-21T10:45:42;5.50;;;4.75;;
39370;SDS011;25099;51.946;4.838;2023-11-21T10:48:09;6.10;;;4.72;;
39370;SDS011;25099;51.946;4.838;2023-11-21T10:50:36;5.75;;;4.97;;
39370;SDS011;25099;51.946;4.838;2023-11-21T10:53:03;6.68;;;4.90;;
39370;SDS011;25099;51.946;4.838;2023-11-21T10:55:29;6.22;;;5.25;;
39370;SDS011;25099;51.946;4.838;2023-11-21T10:57:58;6.22;;;5.40;;
39370;SDS011;25099;51.946;4.838;2023-11-21T11:00:25;7.50;;;5.53;;
39370;SDS011;25099;51.946;4.838;2023-11-21T11:02:52;6.35;;;5.43;;
39370;SDS011;25099;51.946;4.838;2023-11-21T11:05:21;7.93;;;6.43;;
39370;SDS011;25099;51.946;4.838;2023-11-21T11:07:51;8.10;;;5.82;;
39370;SDS011;25099;51.946;4.838;2023-11-21T11:10:25;8.85;;;6.45;;
39370;SDS011;25099;51.946;4.838;2023-11-21T11:12:53;10.40;;;5.97;;
39370;SDS011;25099;51.946;4.838;2023-11-21T11:15:21;9.32;;;6.28;;
39370;SDS011;25099;51.946;4.838;2023-11-21T11:17:47;7.80;;;6.30;;
39370;SDS011;25099;51.946;4.838;2023-11-21T11:20:21;10.10;;;6.20;;
39370;SDS011;25099;51.946;4.838;2023-11-21T11:28:20;12.10;;;7.22;;
39370;SDS011;25099;51.946;4.838;2023-11-21T11:37:03;12.52;;;8.48;;
39370;SDS011;25099;51.946;4.838;2023-11-21T11:39:34;12.25;;;8.75;;
39370;SDS011;25099;51.946;4.838;2023-11-21T11:42:04;13.38;;;8.80;;
39370;SDS011;25099;51.946;4.838;2023-11-21T11:47:16;11.73;;;9.10;;
39370;SDS011;25099;51.946;4.838;2023-11-21T11:52:48;14.88;;;9.02;;
39370;SDS011;25099;51.946;4.838;2023-11-21T11:55:16;13.50;;;9.23;;
39370;SDS011;25099;51.946;4.838;2023-11-21T11:58:15;15.38;;;9.10;;
39370;SDS011;25099;51.946;4.838;2023-11-21T12:00:40;15.32;;;9.93;;
39370;SDS011;25099;51.946;4.838;2023-11-21T12:03:07;16.30;;;8.90;;
39370;SDS011;25099;51.946;4.838;2023-11-21T12:05:34;12.75;;;9.82;;
39370;SDS011;25099;51.946;4.838;2023-11-21T12:08:04;14.65;;;9.75;;
39370;SDS011;25099;51.946;4.838;2023-11-21T12:10:38;17.02;;;11.25;;
39370;SDS011;25099;51.946;4.838;2023-11-21T12:13:08;15.18;;;10.70;;
39370;SDS011;25099;51.946;4.838;2023-11-21T12:15:35;17.00;;;10.73;;
39370;SDS011;25099;51.946;4.838;2023-11-21T12:18:01;16.35;;;10.18;;
39370;SDS011;25099;51.946;4.838;2023-11-21T12:20:28;14.25;;;9.80;;
39370;SDS011;25099;51.946;4.838;2023-11-21T12:22:55;17.10;;;10.30;;
39370;SDS011;25099;51.946;4.838;2023-11-21T12:25:22;15.65;;;9.18;;
39370;SDS011;25099;51.946;4.838;2023-11-21T12:27:50;13.18;;;9.15;;
39370;SDS011;25099;51.946;4.838;2023-11-21T12:30:26;15.45;;;10.13;;
39370;SDS011;25099;51.946;4.838;2023-11-21T12:32:58;17.90;;;10.23;;
39370;SDS011;25099;51.946;4.838;2023-11-21T12:35:32;19.13;;;11.43;;
39370;SDS011;25099;51.946;4.838;2023-11-21T12:38:02;17.13;;;11.45;;
39370;SDS011;25099;51.946;4.838;2023-11-21T12:40:29;17.55;;;11.50;;
39370;SDS011;25099;51.946;4.838;2023-11-21T12:42:56;17.98;;;10.68;;
39370;SDS011;25099;51.946;4.838;2023-11-21T12:45:24;19.88;;;9.57;;
39370;SDS011;25099;51.946;4.838;2023-11-21T12:47:55;17.60;;;10.57;;
39370;SDS011;25099;51.946;4.838;2023-11-21T12:50:37;17.13;;;10.93;;
39370;SDS011;25099;51.946;4.838;2023-11-21T12:53:04;17.30;;;10.85;;
39370;SDS011;25099;51.946;4.838;2023-11-21T12:55:43;13.95;;;10.25;;
39370;SDS011;25099;51.946;4.838;2023-11-21T12:58:15;19.52;;;11.32;;
39370;SDS011;25099;51.946;4.838;2023-11-21T13:00:45;17.02;;;10.38;;
39370;SDS011;25099;51.946;4.838;2023-11-21T13:03:18;19.25;;;10.13;;
39370;SDS011;25099;51.946;4.838;2023-11-21T13:05:45;17.77;;;10.52;;
39370;SDS011;25099;51.946;4.838;2023-11-21T13:08:16;14.55;;;10.70;;
39370;SDS011;25099;51.946;4.838;2023-11-21T13:10:45;15.77;;;10.30;;
39370;SDS011;25099;51.946;4.838;2023-11-21T13:13:13;14.02;;;10.27;;
39370;SDS011;25099;51.946;4.838;2023-11-21T13:15:53;14.73;;;10.05;;
39370;SDS011;25099;51.946;4.838;2023-11-21T13:18:27;15.18;;;9.38;;
39370;SDS011;25099;51.946;4.838;2023-11-21T13:21:05;16.77;;;10.27;;
39370;SDS011;25099;51.946;4.838;2023-11-21T13:23:40;16.88;;;11.25;;
39370;SDS011;25099;51.946;4.838;2023-11-21T13:26:11;14.63;;;10.30;;
39370;SDS011;25099;51.946;4.838;2023-11-21T13:28:37;17.45;;;11.02;;
39370;SDS011;25099;51.946;4.838;2023-11-21T13:31:03;17.08;;;11.05;;
39370;SDS011;25099;51.946;4.838;2023-11-21T13:33:58;18.90;;;12.02;;
39370;SDS011;25099;51.946;4.838;2023-11-21T13:36:30;17.33;;;11.10;;
39370;SDS011;25099;51.946;4.838;2023-11-21T13:39:00;20.08;;;12.25;;
39370;SDS011;25099;51.946;4.838;2023-11-21T13:41:36;18.35;;;11.45;;
39370;SDS011;25099;51.946;4.838;2023-11-21T13:44:03;20.63;;;13.20;;
39370;SDS011;25099;51.946;4.838;2023-11-21T13:46:57;19.23;;;12.10;;
39370;SDS011;25099;51.946;4.838;2023-11-21T13:49:28;18.52;;;12.13;;
39370;SDS011;25099;51.946;4.838;2023-11-21T13:52:05;21.30;;;12.65;;
39370;SDS011;25099;51.946;4.838;2023-11-21T13:54:35;25.60;;;14.35;;
39370;SDS011;25099;51.946;4.838;2023-11-21T13:57:04;18.17;;;12.85;;
39370;SDS011;25099;51.946;4.838;2023-11-21T13:59:30;19.80;;;13.18;;
39370;SDS011;25099;51.946;4.838;2023-11-21T14:01:57;17.17;;;12.60;;
39370;SDS011;25099;51.946;4.838;2023-11-21T14:04:41;20.33;;;12.55;;
39370;SDS011;25099;51.946;4.838;2023-11-21T14:07:29;21.10;;;12.95;;
39370;SDS011;25099;51.946;4.838;2023-11-21T14:10:02;17.20;;;12.52;;
39370;SDS011;25099;51.946;4.838;2023-11-21T14:12:28;19.77;;;13.50;;
39370;SDS011;25099;51.946;4.838;2023-11-21T14:14:58;19.92;;;13.32;;
39370;SDS011;25099;51.946;4.838;2023-11-21T14:17:25;21.10;;;13.52;;
39370;SDS011;25099;51.946;4.838;2023-11-21T14:19:52;18.33;;;12.63;;
39370;SDS011;25099;51.946;4.838;2023-11-21T14:22:23;19.50;;;13.48;;
39370;SDS011;25099;51.946;4.838;2023-11-21T14:24:53;20.58;;;14.02;;
39370;SDS011;25099;51.946;4.838;2023-11-21T14:27:26;23.33;;;14.07;;
39370;SDS011;25099;51.946;4.838;2023-11-21T14:29:52;18.90;;;13.30;;
39370;SDS011;25099;51.946;4.838;2023-11-21T14:32:18;23.95;;;14.73;;
39370;SDS011;25099;51.946;4.838;2023-11-21T14:34:53;21.05;;;13.05;;
39370;SDS011;25099;51.946;4.838;2023-11-21T14:37:19;19.52;;;12.95;;
39370;SDS011;25099;51.946;4.838;2023-11-21T14:40:03;17.63;;;13.50;;
39370;SDS011;25099;51.946;4.838;2023-11-21T14:42:33;16.95;;;12.95;;
39370;SDS011;25099;51.946;4.838;2023-11-21T14:45:02;23.47;;;13.20;;
39370;SDS011;25099;51.946;4.838;2023-11-21T14:47:31;25.33;;;13.52;;
39370;SDS011;25099;51.946;4.838;2023-11-21T14:50:02;22.33;;;14.43;;
39370;SDS011;25099;51.946;4.838;2023-11-21T14:53:01;18.58;;;12.82;;
39370;SDS011;25099;51.946;4.838;2023-11-21T14:55:33;21.02;;;14.13;;